^^
Station Historical Data
Daily Summary for February 4, 2017 Units:  Metric    English   Both
« Previous Day
Next Day »
Daily Weekly Monthly Yearly Custom
  High: Low: Average:
Temperature: 23 °C 15.3 °C 17.9 °C
Dew Point: 12.4 °C 6.9 °C 11.4 °C
Humidity: 81% 40% 67%
Wind Speed: 32km/h 11.1km/h 18km/h
Wind Gust: 40.2km/h - -
Wind- - SSW
Pressure: 1009 hPa 1006.3 hPa -
Precipitation: 0 mm    
Historical Graphs
 
 
Tabular Data for February 4, 2017
Time Temperature Dew Point Pressure Wind Wind Speed Wind Gust Humidity Rainfall Rate (Hourly) solar Conditions
00:29 19.4 °C 10.9 °C 1007.3 hPa SSW 16.3 km/h 22.5 km/h 58% 0 mm 0.0 W/m2
00:34 19.3 °C 11.1 °C 1007.3 hPa SSW 17.7 km/h 20.9 km/h 59% 0 mm 0.0 W/m2
00:39 19.2 °C 11 °C 1007.3 hPa SSW 17.7 km/h 22.5 km/h 59% 0 mm 0.0 W/m2
00:44 19.1 °C 11.2 °C 1007.3 hPa SW 14.3 km/h 19.3 km/h 60% 0 mm 0.0 W/m2
00:54 18.9 °C 11.2 °C 1007.3 hPa SW 11.1 km/h 17.7 km/h 61% 0 mm 0.0 W/m2
01:04 18.8 °C 11.1 °C 1007 hPa SW 17.7 km/h 19.3 km/h 61% 0 mm 0.0 W/m2
01:09 18.7 °C 11.3 °C 1007 hPa SW 13 km/h 17.7 km/h 62% 0 mm 0.0 W/m2
01:14 18.7 °C 11.3 °C 1007 hPa SW 14.3 km/h 16.1 km/h 62% 0 mm 0.0 W/m2
01:19 18.8 °C 11.4 °C 1007 hPa SSW 16.3 km/h 16.3 km/h 62% 0 mm 0.0 W/m2
01:24 18.7 °C 11.3 °C 1007 hPa SSW 16.3 km/h 22.5 km/h 62% 0 mm 0.0 W/m2
01:34 18.7 °C 11.5 °C 1007 hPa SSW 11.1 km/h 17.7 km/h 63% 0 mm 0.0 W/m2
01:39 18.7 °C 11.5 °C 1007 hPa SSW 24.1 km/h 24.1 km/h 63% 0 mm 0.0 W/m2
01:44 18.6 °C 11.7 °C 1007 hPa SSW 16.3 km/h 25.7 km/h 64% 0 mm 0.0 W/m2
01:49 18.5 °C 11.6 °C 1007 hPa SSW 14.3 km/h 24.1 km/h 64% 0 mm 0.0 W/m2
01:54 18.4 °C 11.7 °C 1007 hPa SSW 14.3 km/h 22.5 km/h 65% 0 mm 0.0 W/m2
01:59 18.4 °C 11.7 °C 1006.7 hPa SSW 17.7 km/h 19.3 km/h 65% 0 mm 0.0 W/m2
02:04 18.3 °C 11.6 °C 1006.7 hPa SSW 19.5 km/h 20.9 km/h 65% 0 mm 0.0 W/m2
02:09 18.2 °C 11.7 °C 1006.7 hPa SSW 19.5 km/h 22.5 km/h 66% 0 mm 0.0 W/m2
02:14 18.1 °C 11.9 °C 1006.7 hPa SSW 16.3 km/h 20.9 km/h 67% 0 mm 0.0 W/m2
02:19 18 °C 11.8 °C 1006.7 hPa SSW 17.7 km/h 20.9 km/h 67% 0 mm 0.0 W/m2
02:24 17.9 °C 11.7 °C 1006.7 hPa SSW 14.3 km/h 19.3 km/h 67% 0 mm 0.0 W/m2
02:29 17.9 °C 11.9 °C 1006.7 hPa SSW 16.3 km/h 22.5 km/h 68% 0 mm 0.0 W/m2
02:34 17.8 °C 11.8 °C 1006.7 hPa SSW 19.5 km/h 19.5 km/h 68% 0 mm 0.0 W/m2
02:39 17.8 °C 11.8 °C 1006.7 hPa SSW 16.3 km/h 20.9 km/h 68% 0 mm 0.0 W/m2
02:45 17.7 °C 11.9 °C 1006.7 hPa SSW 13 km/h 19.3 km/h 69% 0 mm 0.0 W/m2
02:50 17.6 °C 11.8 °C 1006.7 hPa SSW 16.3 km/h 17.7 km/h 69% 0 mm 0.0 W/m2
02:55 17.6 °C 11.8 °C 1006.7 hPa SSW 13 km/h 22.5 km/h 69% 0 mm 0.0 W/m2
03:00 17.5 °C 12 °C 1006.7 hPa SSW 17.7 km/h 19.3 km/h 70% 0 mm 0.0 W/m2
03:05 17.5 °C 12 °C 1006.7 hPa SSW 16.3 km/h 20.9 km/h 70% 0 mm 0.0 W/m2
03:10 17.4 °C 11.9 °C 1006.7 hPa SSW 14.3 km/h 19.3 km/h 70% 0 mm 0.0 W/m2
03:15 17.4 °C 11.9 °C 1006.7 hPa SSW 11.1 km/h 17.7 km/h 70% 0 mm 0.0 W/m2
03:20 17.3 °C 11.8 °C 1006.3 hPa SSW 14.3 km/h 16.1 km/h 70% 0 mm 0.0 W/m2
03:25 17.3 °C 12 °C 1006.3 hPa SSW 14.3 km/h 20.9 km/h 71% 0 mm 0.0 W/m2
03:30 17.2 °C 11.9 °C 1006.3 hPa SSW 13 km/h 20.9 km/h 71% 0 mm 0.0 W/m2
03:35 17.2 °C 11.9 °C 1006.3 hPa SSW 13 km/h 20.9 km/h 71% 0 mm 0.0 W/m2
03:50 16.9 °C 11.8 °C 1006.3 hPa SSW 16.3 km/h 20.9 km/h 72% 0 mm 0.0 W/m2
03:54 16.9 °C 12 °C 1006.3 hPa SSW 16.3 km/h 17.7 km/h 73% 0 mm 0.0 W/m2
04:00 16.9 °C 12 °C 1006.3 hPa SSW 19.5 km/h 19.5 km/h 73% 0 mm 0.0 W/m2
04:30 16.7 °C 12 °C 1006.3 hPa SSW 19.5 km/h 22.5 km/h 74% 0 mm 0.0 W/m2
04:34 16.6 °C 11.9 °C 1006.3 hPa SSW 17.7 km/h 24.1 km/h 74% 0 mm 0.0 W/m2
04:39 16.5 °C 12.1 °C 1006.3 hPa SSW 17.7 km/h 22.5 km/h 75% 0 mm 0.0 W/m2
05:51 15.8 °C 12.2 °C 1006.7 hPa SW 22.7 km/h 24.1 km/h 79% 0 mm 0.0 W/m2
06:05 15.7 °C 12.1 °C 1007 hPa SW 17.7 km/h 19.3 km/h 79% 0 mm 0.0 W/m2
06:10 15.7 °C 12.1 °C 1007 hPa SW 13 km/h 22.5 km/h 79% 0 mm 0.0 W/m2
06:15 15.6 °C 12.2 °C 1007 hPa SW 19.5 km/h 20.9 km/h 80% 0 mm 0.0 W/m2
06:25 15.4 °C 12 °C 1007 hPa SW 16.3 km/h 20.9 km/h 80% 0 mm 5.0 W/m2
06:35 15.3 °C 12.1 °C 1007.3 hPa SW 16.3 km/h 20.9 km/h 81% 0 mm 12.0 W/m2
06:45 15.4 °C 12.2 °C 1007.3 hPa SW 17.7 km/h 22.5 km/h 81% 0 mm 23.0 W/m2
06:56 15.4 °C 12.2 °C 1007.3 hPa SW 13 km/h 17.7 km/h 81% 0 mm 44.0 W/m2
07:06 15.6 °C 12.2 °C 1007.7 hPa SW 14.3 km/h 19.3 km/h 80% 0 mm 72.0 W/m2
07:20 15.7 °C 12.1 °C 1007.7 hPa SSW 16.3 km/h 20.9 km/h 79% 0 mm 107.0 W/m2
07:29 15.9 °C 12.3 °C 1007.7 hPa SSW 19.5 km/h 19.5 km/h 79% 0 mm 148.0 W/m2
07:31 15.9 °C 12.3 °C 1007.7 hPa SSW 19.5 km/h 20.9 km/h 79% 0 mm 167.0 W/m2
07:41 16.1 °C 12.3 °C 1008 hPa SW 16.3 km/h 24.1 km/h 78% 0 mm 211.0 W/m2
07:51 16.3 °C 12.3 °C 1008 hPa SW 20.9 km/h 24.1 km/h 77% 0 mm 248.0 W/m2
08:05 16.4 °C 12.2 °C 1008 hPa SW 22.7 km/h 24.1 km/h 76% 0 mm 281.0 W/m2
08:16 16.7 °C 12.2 °C 1008 hPa SW 19.5 km/h 29 km/h 75% 0 mm 320.0 W/m2
08:21 17.1 °C 12.4 °C 1008 hPa SSW 17.7 km/h 25.7 km/h 74% 0 mm 355.0 W/m2
08:31 17.3 °C 12.2 °C 1008 hPa SSW 20.9 km/h 24.1 km/h 72% 0 mm 392.0 W/m2
08:41 17.4 °C 12.3 °C 1008 hPa SSW 16.3 km/h 20.9 km/h 72% 0 mm 425.0 W/m2
08:51 17.7 °C 12.2 °C 1008 hPa SW 14.3 km/h 22.5 km/h 70% 0 mm 462.0 W/m2
09:01 18.1 °C 12.3 °C 1008 hPa SW 20.9 km/h 27.4 km/h 69% 0 mm 496.0 W/m2
09:11 18.4 °C 12.4 °C 1007.7 hPa SW 19.5 km/h 25.7 km/h 68% 0 mm 531.0 W/m2
09:21 18.5 °C 12.3 °C 1007.7 hPa SW 22.7 km/h 25.7 km/h 67% 0 mm 561.0 W/m2
19:59 23 °C 8.7 °C 1007.3 hPa South 27.4 km/h 38.6 km/h 40% 0 mm 0.0 W/m2
20:14 22.4 °C 8.5 °C 1007.7 hPa SSW 22.7 km/h 37 km/h 41% 0 mm 0.0 W/m2
20:37 22 °C 8.5 °C 1008 hPa SSW 25.9 km/h 30.6 km/h 42% 0 mm 0.0 W/m2
20:51 21.5 °C 8.4 °C 1008.4 hPa SSW 24.1 km/h 30.6 km/h 43% 0 mm 0.0 W/m2
20:59 21.1 °C 7.7 °C 1008.4 hPa South 32 km/h 37 km/h 42% 0 mm 0.0 W/m2
21:21 20.6 °C 7.2 °C 1008.4 hPa South 32 km/h 38.6 km/h 42% 0 mm 0.0 W/m2
21:25 20.3 °C 7.3 °C 1008.7 hPa SSW 24.1 km/h 38.6 km/h 43% 0 mm 0.0 W/m2
21:40 20.1 °C 7.1 °C 1009 hPa South 30.6 km/h 37 km/h 43% 0 mm 0.0 W/m2
21:47 19.8 °C 6.9 °C 1009 hPa South 27.4 km/h 40.2 km/h 43% 0 mm 0.0 W/m2
Canyon Roadhouse, Fishriver Canyon, Namibia
Compliments of Weather Underground - 2 mb